Time;durP1;ratioP1;P1;durP2;ratioP2;P2;SDS_P1;SDS_P2;PMS_P1;PMS_P2;Temp;Humidity;BMP_temperature;BMP_pressure;BME280_temperature;BME280_humidity;BME280_pressure;Samples;Min_cycle;Max_cycle;Signal;HPM_P1;HPM_P2
2022/02/23 00:04:18;;;;;;;7.88;1.48;;;9.30;72.80;;;;;;20684403;28;20192;-79
2022/02/23 00:14:18;;;;;;;5.90;1.52;;;9.20;72.60;;;;;;20728502;28;20065;-80
2022/02/23 00:24:19;;;;;;;4.35;1.15;;;9.20;72.60;;;;;;20742248;28;20109;-79
2022/02/23 00:34:19;;;;;;;4.53;0.90;;;9.20;72.60;;;;;;20742405;28;20038;-79
2022/02/23 00:44:20;;;;;;;4.43;1.50;;;9.30;72.50;;;;;;20725474;28;20054;-78
2022/02/23 00:54:21;;;;;;;4.13;1.23;;;9.20;72.50;;;;;;20692869;28;20048;-78
2022/02/23 01:04:21;;;;;;;8.10;1.45;;;9.20;72.50;;;;;;20707385;28;20033;-79
2022/02/23 01:14:22;;;;;;;4.88;1.10;;;9.20;72.50;;;;;;20722529;28;20125;-78
2022/02/23 01:24:22;;;;;;;5.40;1.25;;;9.20;72.50;;;;;;20705967;28;20160;-79
2022/02/23 01:34:23;;;;;;;8.50;2.90;;;9.20;72.50;;;;;;20705147;28;20045;-78
2022/02/23 01:44:23;;;;;;;12.30;1.92;;;9.20;72.50;;;;;;20737671;28;20855;-79
2022/02/23 01:54:24;;;;;;;13.15;1.88;;;9.20;72.40;;;;;;20687592;28;20042;-79
2022/02/23 02:04:25;;;;;;;7.82;1.73;;;9.20;72.40;;;;;;20720115;28;20563;-79
2022/02/23 02:14:26;;;;;;;14.45;2.00;;;9.20;72.50;;;;;;20718108;28;20037;-79
2022/02/23 02:24:31;;;;;;;7.35;1.95;;;9.20;72.40;;;;;;20677546;28;20049;-78
2022/02/23 02:34:31;;;;;;;12.00;1.70;;;9.20;72.40;;;;;;20619736;28;20375;-78
2022/02/23 02:44:32;;;;;;;8.95;2.22;;;9.20;72.40;;;;;;20651454;28;20030;-79
2022/02/23 02:54:33;;;;;;;12.95;2.15;;;9.20;72.40;;;;;;20634438;28;20045;-78
2022/02/23 03:04:34;;;;;;;10.13;1.80;;;9.20;72.30;;;;;;20617548;28;20074;-79
2022/02/23 03:14:34;;;;;;;9.23;1.67;;;9.20;72.30;;;;;;20648827;28;20184;-78
2022/02/23 03:24:35;;;;;;;5.72;1.73;;;9.20;72.20;;;;;;20649633;28;20042;-79
2022/02/23 03:34:35;;;;;;;3.85;1.10;;;9.20;72.20;;;;;;20630936;28;20132;-78
2022/02/23 03:44:36;;;;;;;4.85;1.40;;;9.20;72.20;;;;;;20614979;28;20093;-77
2022/02/23 03:54:36;;;;;;;7.20;2.75;;;9.20;72.20;;;;;;20630706;28;20074;-78
2022/02/23 04:04:37;;;;;;;8.38;3.00;;;9.20;72.20;;;;;;20630230;28;20035;-78
2022/02/23 04:14:38;;;;;;;11.82;1.52;;;9.20;72.20;;;;;;20629756;28;20043;-77
2022/02/23 04:24:38;;;;;;;4.95;1.52;;;9.20;72.20;;;;;;20629672;28;20074;-77
2022/02/23 04:34:39;;;;;;;8.65;2.20;;;9.20;72.20;;;;;;20627866;28;20081;-77
2022/02/23 04:44:39;;;;;;;11.68;1.27;;;9.10;72.10;;;;;;20651730;28;20045;-78
2022/02/23 04:54:40;;;;;;;5.10;1.83;;;9.20;72.20;;;;;;20641842;28;20502;-80
2022/02/23 05:04:40;;;;;;;5.38;1.25;;;9.20;72.20;;;;;;20642492;28;20370;-80
2022/02/23 05:14:41;;;;;;;9.00;1.70;;;9.20;72.20;;;;;;20659775;28;20049;-79
2022/02/23 05:24:42;;;;;;;4.15;1.17;;;9.20;72.20;;;;;;20640675;28;20038;-80
2022/02/23 05:34:42;;;;;;;2.60;1.55;;;9.10;72.10;;;;;;20624194;28;20467;-80
2022/02/23 05:44:43;;;;;;;5.03;1.23;;;9.20;72.10;;;;;;20639857;28;20475;-76
2022/02/23 05:54:43;;;;;;;5.80;1.42;;;9.20;72.20;;;;;;20678965;28;20049;-72
2022/02/23 06:04:44;;;;;;;4.90;1.30;;;9.20;72.10;;;;;;20709760;28;20058;-74
2022/02/23 06:14:44;;;;;;;8.02;2.15;;;9.20;72.10;;;;;;20730307;28;20764;-74
2022/02/23 06:24:45;;;;;;;7.93;1.73;;;9.20;72.00;;;;;;20735913;28;20038;-77
2022/02/23 06:34:46;;;;;;;11.75;1.83;;;9.20;72.00;;;;;;20751324;28;20037;-74
2022/02/23 06:44:46;;;;;;;4.10;1.30;;;9.20;71.90;;;;;;20815071;28;20044;-74
2022/02/23 06:54:47;;;;;;;8.27;1.45;;;9.20;71.90;;;;;;20743202;28;20049;-70
2022/02/23 07:04:47;;;;;;;10.57;1.58;;;9.20;71.80;;;;;;20712611;28;20071;-70
2022/02/23 07:14:48;;;;;;;6.13;1.60;;;9.20;71.80;;;;;;20711156;28;20092;-70
2022/02/23 07:24:49;;;;;;;5.40;1.00;;;9.20;71.80;;;;;;20716759;28;20780;-70
2022/02/23 07:34:50;;;;;;;9.02;1.48;;;9.20;71.80;;;;;;20708393;28;20068;-74
2022/02/23 07:44:51;;;;;;;10.02;1.60;;;9.20;71.80;;;;;;20670756;28;20040;-73
2022/02/23 07:54:51;;;;;;;5.20;1.27;;;9.20;71.80;;;;;;20690920;28;20456;-73
2022/02/23 08:04:52;;;;;;;7.13;1.48;;;9.20;71.70;;;;;;20726432;28;20449;-70
2022/02/23 08:14:54;;;;;;;6.40;2.17;;;9.20;71.70;;;;;;20677760;28;20038;-70
2022/02/23 08:24:56;;;;;;;3.97;1.10;;;9.20;71.70;;;;;;20700630;28;20288;-70
2022/02/23 08:34:56;;;;;;;8.50;1.77;;;9.20;71.70;;;;;;20692408;28;20140;-70
2022/02/23 08:44:57;;;;;;;7.35;1.45;;;9.20;71.70;;;;;;20705511;28;20072;-71
2022/02/23 08:54:57;;;;;;;13.32;4.85;;;9.20;71.70;;;;;;20690604;28;20042;-70
2022/02/23 09:04:58;;;;;;;5.35;1.45;;;9.20;71.70;;;;;;20687114;28;20037;-73
2022/02/23 09:14:59;;;;;;;3.38;1.10;;;9.20;71.70;;;;;;20716165;28;20057;-71
2022/02/23 09:24:59;;;;;;;6.88;1.48;;;9.20;71.70;;;;;;20734821;28;20095;-70
2022/02/23 09:35:00;;;;;;;5.78;1.90;;;9.20;71.70;;;;;;20773766;28;20061;-70
2022/02/23 09:45:02;;;;;;;5.72;2.00;;;9.20;71.60;;;;;;20770554;28;20037;-70
2022/02/23 09:55:04;;;;;;;7.85;2.50;;;9.20;71.60;;;;;;20729060;28;20132;-73
2022/02/23 10:05:05;;;;;;;11.73;2.10;;;9.20;71.50;;;;;;20678381;28;20034;-73
2022/02/23 10:15:07;;;;;;;12.98;2.10;;;9.20;71.50;;;;;;20714473;28;20725;-73
2022/02/23 10:25:07;;;;;;;6.00;1.65;;;9.20;71.40;;;;;;20733286;28;20099;-72
2022/02/23 10:35:08;;;;;;;10.13;2.10;;;9.20;71.40;;;;;;20715085;28;20819;-70
2022/02/23 10:45:10;;;;;;;8.07;1.60;;;9.30;71.40;;;;;;20777925;28;20497;-69
2022/02/23 10:55:13;;;;;;;6.80;1.55;;;9.30;71.40;;;;;;20713886;28;20104;-72
2022/02/23 11:05:14;;;;;;;8.32;1.50;;;9.30;71.40;;;;;;20729387;28;20040;-73
2022/02/23 11:15:16;;;;;;;5.07;1.15;;;9.30;71.40;;;;;;20714251;28;20113;-74
2022/02/23 11:25:18;;;;;;;8.52;1.33;;;9.30;71.20;;;;;;21157849;23;20393;-72
2022/02/23 11:35:54;;;;;;;4.22;1.73;;;9.30;71.00;;;;;;20874617;28;20365;-73
2022/02/23 11:45:59;;;;;;;11.00;2.13;;;9.30;70.90;;;;;;20875304;28;20552;-73
2022/02/23 11:56:14;;;;;;;6.72;1.20;;;9.30;70.70;;;;;;20811340;28;20045;-73
2022/02/23 12:06:16;;;;;;;6.60;1.35;;;9.30;70.30;;;;;;20826112;28;20033;-75
2022/02/23 12:16:27;;;;;;;6.07;1.23;;;9.30;69.80;;;;;;20835991;28;20033;-76
2022/02/23 12:26:27;;;;;;;4.18;1.15;;;9.40;69.10;;;;;;20811876;28;20091;-76
2022/02/23 12:36:35;;;;;;;4.18;1.20;;;9.30;68.40;;;;;;20836955;28;20683;-77
2022/02/23 12:46:38;;;;;;;5.47;1.23;;;9.30;68.20;;;;;;20891131;28;20029;-81
2022/02/23 12:56:40;;;;;;;4.88;1.20;;;9.30;68.10;;;;;;20835241;28;20045;-77
2022/02/23 13:06:46;;;;;;;1.15;0.75;;;9.30;67.80;;;;;;20873752;28;20087;-77
2022/02/23 13:16:48;;;;;;;2.67;0.73;;;9.30;67.60;;;;;;20856153;28;20067;-75
2022/02/23 13:26:49;;;;;;;6.28;0.63;;;9.30;67.90;;;;;;20886616;28;20041;-76
2022/02/23 13:36:50;;;;;;;4.45;0.90;;;9.40;68.10;;;;;;20881301;28;20036;-77
2022/02/23 13:47:13;;;;;;;2.85;1.10;;;9.40;68.30;;;;;;20865984;28;20036;-77
2022/02/23 13:57:14;;;;;;;4.50;1.05;;;9.40;68.40;;;;;;20863169;28;20057;-81
2022/02/23 14:07:26;;;;;;;5.05;0.82;;;9.40;68.50;;;;;;20817706;28;20056;-76
2022/02/23 14:17:28;;;;;;;3.20;1.27;;;9.40;68.60;;;;;;20788634;28;20529;-80
2022/02/23 14:27:31;;;;;;;7.90;1.38;;;9.40;68.50;;;;;;20783628;28;20041;-78
2022/02/23 14:37:36;;;;;;;9.77;1.63;;;9.50;68.30;;;;;;20829781;28;20036;-81
2022/02/23 14:47:38;;;;;;;7.40;0.80;;;9.60;68.20;;;;;;20865185;28;20025;-89
2022/02/23 14:57:39;;;;;;;5.97;0.98;;;9.50;68.20;;;;;;20882294;28;20037;-82
2022/02/23 15:07:40;;;;;;;2.60;0.88;;;9.60;68.40;;;;;;20880619;28;20104;-79
2022/02/23 15:17:40;;;;;;;2.03;0.60;;;9.60;68.50;;;;;;20794305;28;20046;-79
2022/02/23 15:27:43;;;;;;;2.75;0.70;;;9.60;68.60;;;;;;20799035;28;20040;-78
2022/02/23 15:37:44;;;;;;;1.38;0.63;;;9.60;68.70;;;;;;20839497;28;20099;-77
2022/02/23 15:47:45;;;;;;;5.97;1.00;;;9.60;68.70;;;;;;20889808;28;20480;-83
2022/02/23 15:57:46;;;;;;;1.42;0.50;;;9.60;68.80;;;;;;20815387;28;20052;-83
2022/02/23 16:07:46;;;;;;;11.38;1.27;;;9.70;68.90;;;;;;20799287;28;20167;-74
2022/02/23 16:17:49;;;;;;;2.55;1.33;;;9.60;69.00;;;;;;20841108;28;20033;-74
2022/02/23 16:27:50;;;;;;;1.50;0.52;;;9.60;69.10;;;;;;20841932;28;20037;-74
2022/02/23 16:37:51;;;;;;;1.52;0.43;;;9.70;69.20;;;;;;20891720;28;20047;-74
2022/02/23 16:47:52;;;;;;;5.13;0.90;;;9.70;69.20;;;;;;20851911;28;20499;-78
2022/02/23 16:57:52;;;;;;;2.20;0.70;;;9.70;69.30;;;;;;20873092;28;20033;-81
2022/02/23 17:07:53;;;;;;;8.07;1.05;;;9.70;69.20;;;;;;20877728;28;20029;-86
2022/02/23 17:17:53;;;;;;;5.80;1.20;;;9.70;69.20;;;;;;20892909;28;20073;-78
2022/02/23 17:27:55;;;;;;;4.13;0.80;;;9.80;69.30;;;;;;20887316;28;20319;-74
2022/02/23 17:37:55;;;;;;;49.65;10.07;;;9.80;69.40;;;;;;20902828;28;20059;-81
2022/02/23 17:47:56;;;;;;;83.05;20.65;;;9.80;69.50;;;;;;20869989;28;20149;-84
2022/02/23 17:57:56;;;;;;;75.37;17.73;;;9.80;69.70;;;;;;20884019;28;20045;-84
2022/02/23 18:07:57;;;;;;;67.22;16.83;;;9.70;69.80;;;;;;20868327;28;20625;-75
2022/02/23 18:17:58;;;;;;;65.43;15.73;;;9.70;70.00;;;;;;20859176;28;20056;-76
2022/02/23 18:27:58;;;;;;;50.07;14.77;;;9.70;70.00;;;;;;20892270;28;20647;-74
2022/02/23 18:37:59;;;;;;;54.13;14.32;;;9.70;70.10;;;;;;20880062;28;20299;-74
2022/02/23 18:48:00;;;;;;;54.08;10.38;;;9.70;70.10;;;;;;20859843;28;20456;-76
2022/02/23 18:58:00;;;;;;;50.05;10.25;;;9.70;70.10;;;;;;20879933;28;20131;-73
2022/02/23 19:08:01;;;;;;;42.42;10.57;;;9.60;70.70;;;;;;20861776;28;20056;-73
2022/02/23 19:18:02;;;;;;;33.67;10.38;;;9.60;70.10;;;;;;20893030;28;20131;-78
2022/02/23 19:28:03;;;;;;;36.40;8.25;;;9.70;70.10;;;;;;20845340;28;20045;-72
2022/02/23 19:38:04;;;;;;;26.85;8.23;;;9.60;70.10;;;;;;20781171;28;20049;-72
2022/02/23 19:48:05;;;;;;;25.55;8.55;;;9.60;70.10;;;;;;20777334;28;20037;-73
2022/02/23 19:58:05;;;;;;;25.25;8.63;;;9.60;70.10;;;;;;20792857;28;20048;-71
2022/02/23 20:08:07;;;;;;;22.33;6.10;;;9.60;70.10;;;;;;20776864;28;20033;-74
2022/02/23 20:18:08;;;;;;;18.58;5.63;;;9.60;70.10;;;;;;20873127;28;20159;-72
2022/02/23 20:28:12;;;;;;;20.92;6.43;;;9.60;70.00;;;;;;20857160;28;20033;-71
2022/02/23 20:38:13;;;;;;;17.10;5.75;;;9.60;70.00;;;;;;20874537;28;20447;-71
2022/02/23 20:48:14;;;;;;;15.43;5.65;;;9.50;70.00;;;;;;20826522;28;20032;-71
2022/02/23 20:58:14;;;;;;;18.58;5.60;;;9.50;70.00;;;;;;20789625;28;20041;-71
2022/02/23 21:08:17;;;;;;;18.80;4.85;;;9.50;69.90;;;;;;20805601;28;20025;-71
2022/02/23 21:18:18;;;;;;;13.30;4.35;;;9.50;70.00;;;;;;20788668;28;20049;-72
2022/02/23 21:28:18;;;;;;;11.57;4.28;;;9.50;69.90;;;;;;20811237;28;20036;-71
2022/02/23 21:38:19;;;;;;;13.95;4.03;;;9.50;69.90;;;;;;20885394;28;20040;-73
2022/02/23 21:48:19;;;;;;;12.75;4.30;;;9.50;69.80;;;;;;20819590;28;20389;-71
2022/02/23 21:58:20;;;;;;;11.93;4.18;;;9.50;69.80;;;;;;20793233;28;20574;-71
2022/02/23 22:08:20;;;;;;;12.32;3.75;;;9.50;69.80;;;;;;20882771;28;20435;-72
2022/02/23 22:18:21;;;;;;;11.45;3.03;;;9.50;69.80;;;;;;20878741;28;20051;-71
2022/02/23 22:28:22;;;;;;;7.20;2.67;;;9.50;69.80;;;;;;20864672;28;20302;-71
2022/02/23 22:38:23;;;;;;;7.47;3.23;;;9.50;69.80;;;;;;20897500;28;20441;-71
2022/02/23 22:48:23;;;;;;;12.40;3.13;;;9.50;69.80;;;;;;20863888;28;20275;-72
2022/02/23 22:58:27;;;;;;;7.32;2.80;;;9.50;69.80;;;;;;20895612;28;20067;-74
2022/02/23 23:08:27;;;;;;;10.00;3.20;;;9.50;69.80;;;;;;20879778;28;20021;-72
2022/02/23 23:18:28;;;;;;;10.20;2.72;;;9.50;69.80;;;;;;20878529;28;20072;-72
2022/02/23 23:28:28;;;;;;;8.27;3.38;;;9.50;69.80;;;;;;20893919;28;20735;-73
2022/02/23 23:38:29;;;;;;;7.47;2.65;;;9.50;69.80;;;;;;20844637;28;20052;-72
2022/02/23 23:48:30;;;;;;;10.07;3.90;;;9.50;69.80;;;;;;20860016;28;20098;-71
2022/02/23 23:58:30;;;;;;;7.53;2.33;;;9.50;69.80;;;;;;20858510;28;20037;-71
